Parker, ID (83438)

3:09 PM MST on February 10, 2016 (GMT -0700)
Salem | | Change Station
CLOSE
Current Station
Personal Weather Station
Location: Rexburg, ID
Elevation: 4879 ft
Nearby Weather Stations

Elev 4879 ft 43.90 °N, 111.77 °W | Updated 29 seconds ago

Clear
Clear
34.7 °F
Feels Like 35 °F
N
2.7
Wind Variable Wind from East

Today
High -- | Low -- °F
--% Chance of Precip.
Yesterday
High -- | Low -- °F
Precip. -- in
Pressure 30.56 in
Visibility 10.0 miles
Clouds Clear
Windchill 35 °F
Dew Point 26 °F
Humidity 69%
Rainfall 0.00 in
Snow Depth Not available.
7:33 AM 5:49 PM
Waxing Crescent, 7% visible
METAR KRXE 102153Z AUTO 07004KT 10SM CLR 01/M05 A3038 RMK AO2 SLP346 T00061050
Pressure 30.56 in
Visibility 10.0 miles
Clouds Clear
Windchill 35 °F
Dew Point 26 °F
Humidity 69%
Rainfall 0.00 in
Snow Depth Not available.
7:33 AM 5:49 PM
Waxing Crescent, 7% visible
METAR KRXE 102153Z AUTO 07004KT 10SM CLR 01/M05 A3038 RMK AO2 SLP346 T00061050

10-Day Weather Forecast

Almanac

Astronomy

Feb. 10, 2016 Rise Set
Actual Time
Civil Twilight
Nautical Twilight
Astronomical Twilight
Moon
Length of Visible Light
Length of Day
Tomorrow will be .
, % of the Moon is Illuminated

Today's Extremes

State Highs State Lows

Community

WunderPhotos

Upload Photos

1,891,959 photos uploaded!

WunderBlog® & News

Nearby

Air Quality

  Air Quality AQ Index Pollutant
Not available.

Snow Depth

Station Depth Elevation

Earthquake Activity

City Distance Mag. Time & Date
Minimum magnitude displayed is 2.5.

Coastal Water Temperatures

Place Temperature

Stations

Nearby Weather Stations

Station Location Temp. Windchill Dew Point Humidity Wind Precip. Elev Updated Type
                   

Watches & Warnings

There are currently no watches in effect.